Hlavní strana
METAR-TAF:

METAR-TAF

Letiště :

Bělgorod, Rusko

zeměpisná šířka: 50-38-36N, zeměpisná délka: 036-35-24E, výška: 224 m

Aktuální stav počasí

Zpráva byla vytvořena před 48 minutami, v 02:30 UTC
Východojihovýchodní vítr 4 kt
Teplota 1°C
Vlhkost vzduchu 100%
Tlak 1029 hPa
Viditelnost: 0050 m
mlha

METAR: UUOB 180230Z 11002MPS 0100 0050SW R29/0350N FG VV002 01/01 Q1029 R29/010060 NOSIG RMK QBB070

Čas: 06:18 (03:18 UTC)

Předpověď počasí

Zpráva byla vytvořena před 1 hodinou a 18 minutami, v 02:00 UTC
Předpověď platná od 18 v 03 UTC do 18 v 12 UTC
Východojihovýchodní vítr 6 kt
Viditelnost: 0200 m
ve výšce 200 ft
mrznoucí mlha
Dočasný
od 18 v 06 UTC do 18 v 12 UTC
Viditelnost: 1500 m
Zataženo ve výšce 300 ft
kouřmo

TAF: UUOB 180200Z 1803/1812 12003MPS 0200 FZFG VV002 TEMPO 1806/1812 1500 BR OVC003

Stav a předpovědi počasí z více než 4 000 letišť (zprávy METAR a TAF).

Červené a žluté tečky na mapě představují dostupné meteorologické stanice.

Když kurzor umístíte na tečku, zobrazí se název stanice.

Pak kliknutím zobrazíte stav a předpověď počasí.

Chcete-li změnit mapu, kliknutím na zelené tlačítko se znaménkem +mapu přiblížíte, kliknutím na zelené tlačítko se znaménkem – mapu oddálíte a kliknutím na zelené šipky přejdete na sousední mapy.


METAR-TAF: